sensor_id;sensor_type;location;lat;lon;timestamp;P1;durP1;ratioP1;P2;durP2;ratioP2
9422;SDS011;65863;49.506;10.400;2023-10-08T00:02:42;5.07;;;2.73;;
9422;SDS011;65863;49.506;10.400;2023-10-08T00:05:27;5.33;;;2.63;;
9422;SDS011;65863;49.506;10.400;2023-10-08T00:08:11;4.53;;;2.83;;
9422;SDS011;65863;49.506;10.400;2023-10-08T00:10:55;4.90;;;2.73;;
9422;SDS011;65863;49.506;10.400;2023-10-08T00:13:40;5.90;;;3.00;;
9422;SDS011;65863;49.506;10.400;2023-10-08T00:16:24;4.43;;;2.60;;
9422;SDS011;65863;49.506;10.400;2023-10-08T00:19:11;4.30;;;2.87;;
9422;SDS011;65863;49.506;10.400;2023-10-08T00:21:58;7.70;;;2.87;;
9422;SDS011;65863;49.506;10.400;2023-10-08T00:24:48;3.87;;;2.80;;
9422;SDS011;65863;49.506;10.400;2023-10-08T00:27:38;2.73;;;2.50;;
9422;SDS011;65863;49.506;10.400;2023-10-08T00:30:22;7.43;;;2.90;;
9422;SDS011;65863;49.506;10.400;2023-10-08T00:33:07;5.40;;;2.77;;
9422;SDS011;65863;49.506;10.400;2023-10-08T00:35:57;3.10;;;2.43;;
9422;SDS011;65863;49.506;10.400;2023-10-08T00:38:41;6.50;;;3.10;;
9422;SDS011;65863;49.506;10.400;2023-10-08T00:41:28;9.03;;;2.50;;
9422;SDS011;65863;49.506;10.400;2023-10-08T00:44:14;4.33;;;2.70;;
9422;SDS011;65863;49.506;10.400;2023-10-08T00:47:05;6.37;;;2.67;;
9422;SDS011;65863;49.506;10.400;2023-10-08T00:49:50;4.57;;;2.70;;
9422;SDS011;65863;49.506;10.400;2023-10-08T00:52:52;4.57;;;2.20;;
9422;SDS011;65863;49.506;10.400;2023-10-08T00:55:53;6.13;;;2.90;;
9422;SDS011;65863;49.506;10.400;2023-10-08T00:58:37;6.70;;;3.27;;
9422;SDS011;65863;49.506;10.400;2023-10-08T01:01:22;5.73;;;2.53;;
9422;SDS011;65863;49.506;10.400;2023-10-08T01:04:06;4.20;;;2.70;;
9422;SDS011;65863;49.506;10.400;2023-10-08T01:06:56;6.80;;;2.70;;
9422;SDS011;65863;49.506;10.400;2023-10-08T01:09:45;7.63;;;3.20;;
9422;SDS011;65863;49.506;10.400;2023-10-08T01:12:34;4.13;;;2.60;;
9422;SDS011;65863;49.506;10.400;2023-10-08T01:15:24;5.03;;;2.97;;
9422;SDS011;65863;49.506;10.400;2023-10-08T01:18:11;4.93;;;2.63;;
9422;SDS011;65863;49.506;10.400;2023-10-08T01:20:58;5.47;;;2.63;;
9422;SDS011;65863;49.506;10.400;2023-10-08T01:23:55;13.73;;;2.70;;
9422;SDS011;65863;49.506;10.400;2023-10-08T01:26:39;5.57;;;2.53;;
9422;SDS011;65863;49.506;10.400;2023-10-08T01:29:24;7.87;;;3.33;;
9422;SDS011;65863;49.506;10.400;2023-10-08T01:32:12;5.93;;;2.97;;
9422;SDS011;65863;49.506;10.400;2023-10-08T01:34:59;6.57;;;3.00;;
9422;SDS011;65863;49.506;10.400;2023-10-08T01:37:44;5.13;;;2.60;;
9422;SDS011;65863;49.506;10.400;2023-10-08T01:40:32;4.80;;;2.57;;
9422;SDS011;65863;49.506;10.400;2023-10-08T01:43:16;5.63;;;2.53;;
9422;SDS011;65863;49.506;10.400;2023-10-08T01:46:02;4.67;;;2.90;;
9422;SDS011;65863;49.506;10.400;2023-10-08T01:48:47;4.43;;;2.70;;
9422;SDS011;65863;49.506;10.400;2023-10-08T01:51:32;4.23;;;2.50;;
9422;SDS011;65863;49.506;10.400;2023-10-08T01:54:25;6.03;;;2.50;;
9422;SDS011;65863;49.506;10.400;2023-10-08T01:57:10;3.67;;;2.53;;
9422;SDS011;65863;49.506;10.400;2023-10-08T01:59:56;7.50;;;3.17;;
9422;SDS011;65863;49.506;10.400;2023-10-08T02:02:40;5.03;;;2.77;;
9422;SDS011;65863;49.506;10.400;2023-10-08T02:05:27;5.80;;;3.13;;
9422;SDS011;65863;49.506;10.400;2023-10-08T02:08:14;5.93;;;2.67;;
9422;SDS011;65863;49.506;10.400;2023-10-08T02:11:00;7.03;;;3.03;;
9422;SDS011;65863;49.506;10.400;2023-10-08T02:13:46;4.00;;;2.70;;
9422;SDS011;65863;49.506;10.400;2023-10-08T02:16:30;3.30;;;2.40;;
9422;SDS011;65863;49.506;10.400;2023-10-08T02:19:17;2.90;;;2.27;;
9422;SDS011;65863;49.506;10.400;2023-10-08T02:22:02;3.47;;;2.47;;
9422;SDS011;65863;49.506;10.400;2023-10-08T02:24:49;7.60;;;2.80;;
9422;SDS011;65863;49.506;10.400;2023-10-08T02:27:35;4.33;;;3.10;;
9422;SDS011;65863;49.506;10.400;2023-10-08T02:30:21;5.87;;;2.57;;
9422;SDS011;65863;49.506;10.400;2023-10-08T02:33:05;4.60;;;2.63;;
9422;SDS011;65863;49.506;10.400;2023-10-08T02:35:58;7.30;;;2.80;;
9422;SDS011;65863;49.506;10.400;2023-10-08T02:38:45;4.33;;;2.47;;
9422;SDS011;65863;49.506;10.400;2023-10-08T02:41:29;2.67;;;2.33;;
9422;SDS011;65863;49.506;10.400;2023-10-08T02:44:13;5.30;;;2.50;;
9422;SDS011;65863;49.506;10.400;2023-10-08T02:46:58;8.17;;;3.40;;
9422;SDS011;65863;49.506;10.400;2023-10-08T02:49:42;4.57;;;2.70;;
9422;SDS011;65863;49.506;10.400;2023-10-08T02:52:26;4.23;;;2.87;;
9422;SDS011;65863;49.506;10.400;2023-10-08T02:55:11;5.90;;;2.60;;
9422;SDS011;65863;49.506;10.400;2023-10-08T02:58:17;4.63;;;2.50;;
9422;SDS011;65863;49.506;10.400;2023-10-08T03:01:05;4.53;;;2.90;;
9422;SDS011;65863;49.506;10.400;2023-10-08T03:03:53;4.43;;;2.73;;
9422;SDS011;65863;49.506;10.400;2023-10-08T03:06:53;3.30;;;2.40;;
9422;SDS011;65863;49.506;10.400;2023-10-08T03:09:37;4.30;;;2.77;;
9422;SDS011;65863;49.506;10.400;2023-10-08T03:12:25;5.90;;;2.67;;
9422;SDS011;65863;49.506;10.400;2023-10-08T03:15:10;5.20;;;2.60;;
9422;SDS011;65863;49.506;10.400;2023-10-08T03:18:23;4.37;;;2.80;;
9422;SDS011;65863;49.506;10.400;2023-10-08T03:21:08;4.73;;;2.97;;
9422;SDS011;65863;49.506;10.400;2023-10-08T03:24:05;5.07;;;3.00;;
9422;SDS011;65863;49.506;10.400;2023-10-08T03:26:56;4.70;;;2.80;;
9422;SDS011;65863;49.506;10.400;2023-10-08T03:29:49;6.40;;;3.40;;
9422;SDS011;65863;49.506;10.400;2023-10-08T03:32:35;5.97;;;2.70;;
9422;SDS011;65863;49.506;10.400;2023-10-08T03:35:19;4.57;;;2.50;;
9422;SDS011;65863;49.506;10.400;2023-10-08T03:38:11;6.37;;;2.53;;
9422;SDS011;65863;49.506;10.400;2023-10-08T03:41:04;5.03;;;3.10;;
9422;SDS011;65863;49.506;10.400;2023-10-08T03:43:51;6.00;;;2.60;;
9422;SDS011;65863;49.506;10.400;2023-10-08T03:46:51;5.57;;;2.43;;
9422;SDS011;65863;49.506;10.400;2023-10-08T03:49:36;5.60;;;2.90;;
9422;SDS011;65863;49.506;10.400;2023-10-08T03:52:28;4.03;;;2.23;;
9422;SDS011;65863;49.506;10.400;2023-10-08T03:55:14;5.43;;;2.60;;
9422;SDS011;65863;49.506;10.400;2023-10-08T03:58:06;6.53;;;2.77;;
9422;SDS011;65863;49.506;10.400;2023-10-08T04:00:54;6.73;;;2.77;;
9422;SDS011;65863;49.506;10.400;2023-10-08T04:03:52;4.17;;;2.80;;
9422;SDS011;65863;49.506;10.400;2023-10-08T04:06:36;6.73;;;3.03;;
9422;SDS011;65863;49.506;10.400;2023-10-08T04:09:20;3.97;;;2.50;;
9422;SDS011;65863;49.506;10.400;2023-10-08T04:12:04;6.03;;;2.80;;
9422;SDS011;65863;49.506;10.400;2023-10-08T04:14:54;7.03;;;2.83;;
9422;SDS011;65863;49.506;10.400;2023-10-08T04:17:40;4.27;;;3.10;;
9422;SDS011;65863;49.506;10.400;2023-10-08T04:20:34;4.37;;;3.17;;
9422;SDS011;65863;49.506;10.400;2023-10-08T04:23:22;5.90;;;2.70;;
9422;SDS011;65863;49.506;10.400;2023-10-08T04:26:06;5.07;;;3.03;;
9422;SDS011;65863;49.506;10.400;2023-10-08T04:28:51;5.20;;;3.00;;
9422;SDS011;65863;49.506;10.400;2023-10-08T04:31:38;5.77;;;3.03;;
9422;SDS011;65863;49.506;10.400;2023-10-08T04:34:30;6.50;;;2.83;;
9422;SDS011;65863;49.506;10.400;2023-10-08T04:37:16;4.63;;;2.80;;
9422;SDS011;65863;49.506;10.400;2023-10-08T04:40:04;5.20;;;2.97;;
9422;SDS011;65863;49.506;10.400;2023-10-08T04:42:50;6.13;;;3.03;;
9422;SDS011;65863;49.506;10.400;2023-10-08T04:45:34;5.37;;;3.00;;
9422;SDS011;65863;49.506;10.400;2023-10-08T04:48:18;5.80;;;3.10;;
9422;SDS011;65863;49.506;10.400;2023-10-08T04:51:05;6.93;;;3.03;;
9422;SDS011;65863;49.506;10.400;2023-10-08T04:53:49;3.23;;;2.70;;
9422;SDS011;65863;49.506;10.400;2023-10-08T04:56:33;5.17;;;3.13;;
9422;SDS011;65863;49.506;10.400;2023-10-08T04:59:17;6.83;;;3.20;;
9422;SDS011;65863;49.506;10.400;2023-10-08T05:02:05;4.33;;;2.70;;
9422;SDS011;65863;49.506;10.400;2023-10-08T05:05:16;5.90;;;3.00;;
9422;SDS011;65863;49.506;10.400;2023-10-08T05:08:00;6.70;;;3.10;;
9422;SDS011;65863;49.506;10.400;2023-10-08T05:10:44;6.00;;;3.00;;
9422;SDS011;65863;49.506;10.400;2023-10-08T05:13:44;6.53;;;3.07;;
9422;SDS011;65863;49.506;10.400;2023-10-08T05:16:44;4.97;;;3.17;;
9422;SDS011;65863;49.506;10.400;2023-10-08T05:19:44;4.37;;;3.13;;
9422;SDS011;65863;49.506;10.400;2023-10-08T05:23:00;5.13;;;3.37;;
9422;SDS011;65863;49.506;10.400;2023-10-08T05:26:04;5.70;;;3.23;;
9422;SDS011;65863;49.506;10.400;2023-10-08T05:28:50;5.73;;;3.00;;
9422;SDS011;65863;49.506;10.400;2023-10-08T05:32:06;6.10;;;3.50;;
9422;SDS011;65863;49.506;10.400;2023-10-08T05:35:21;6.30;;;2.93;;
9422;SDS011;65863;49.506;10.400;2023-10-08T05:38:22;5.27;;;2.80;;
9422;SDS011;65863;49.506;10.400;2023-10-08T05:41:07;4.90;;;2.53;;
9422;SDS011;65863;49.506;10.400;2023-10-08T05:44:11;6.13;;;3.00;;
9422;SDS011;65863;49.506;10.400;2023-10-08T05:46:57;6.07;;;3.20;;
9422;SDS011;65863;49.506;10.400;2023-10-08T05:50:10;5.00;;;2.93;;
9422;SDS011;65863;49.506;10.400;2023-10-08T05:53:00;4.67;;;3.07;;
9422;SDS011;65863;49.506;10.400;2023-10-08T05:55:45;4.20;;;2.80;;
9422;SDS011;65863;49.506;10.400;2023-10-08T05:58:44;6.10;;;2.90;;
9422;SDS011;65863;49.506;10.400;2023-10-08T06:01:44;4.77;;;3.10;;
9422;SDS011;65863;49.506;10.400;2023-10-08T06:04:30;8.07;;;3.20;;
9422;SDS011;65863;49.506;10.400;2023-10-08T06:07:32;5.27;;;2.97;;
9422;SDS011;65863;49.506;10.400;2023-10-08T06:10:32;6.73;;;3.43;;
9422;SDS011;65863;49.506;10.400;2023-10-08T06:13:16;5.33;;;3.20;;
9422;SDS011;65863;49.506;10.400;2023-10-08T06:16:00;5.77;;;3.47;;
9422;SDS011;65863;49.506;10.400;2023-10-08T06:18:44;7.10;;;3.17;;
9422;SDS011;65863;49.506;10.400;2023-10-08T06:21:28;4.97;;;3.30;;
9422;SDS011;65863;49.506;10.400;2023-10-08T06:24:13;4.63;;;2.83;;
9422;SDS011;65863;49.506;10.400;2023-10-08T06:27:00;6.63;;;3.40;;
9422;SDS011;65863;49.506;10.400;2023-10-08T06:29:48;3.93;;;2.93;;
9422;SDS011;65863;49.506;10.400;2023-10-08T06:32:33;5.20;;;2.87;;
9422;SDS011;65863;49.506;10.400;2023-10-08T06:35:17;5.17;;;3.17;;
9422;SDS011;65863;49.506;10.400;2023-10-08T06:38:01;5.83;;;3.10;;
9422;SDS011;65863;49.506;10.400;2023-10-08T06:40:53;5.63;;;3.27;;
9422;SDS011;65863;49.506;10.400;2023-10-08T06:43:37;6.57;;;3.67;;
9422;SDS011;65863;49.506;10.400;2023-10-08T06:46:21;4.13;;;2.90;;
9422;SDS011;65863;49.506;10.400;2023-10-08T06:49:08;7.13;;;3.57;;
9422;SDS011;65863;49.506;10.400;2023-10-08T06:51:55;4.73;;;2.60;;
9422;SDS011;65863;49.506;10.400;2023-10-08T06:54:39;6.67;;;2.87;;
9422;SDS011;65863;49.506;10.400;2023-10-08T06:57:23;5.47;;;3.47;;
9422;SDS011;65863;49.506;10.400;2023-10-08T07:00:10;8.63;;;3.33;;
9422;SDS011;65863;49.506;10.400;2023-10-08T07:03:08;7.33;;;3.50;;
9422;SDS011;65863;49.506;10.400;2023-10-08T07:05:58;5.77;;;3.07;;
9422;SDS011;65863;49.506;10.400;2023-10-08T07:08:44;4.63;;;3.20;;
9422;SDS011;65863;49.506;10.400;2023-10-08T07:11:38;4.60;;;2.90;;
9422;SDS011;65863;49.506;10.400;2023-10-08T07:14:28;5.80;;;2.60;;
9422;SDS011;65863;49.506;10.400;2023-10-08T07:17:12;7.57;;;3.27;;
9422;SDS011;65863;49.506;10.400;2023-10-08T07:20:03;5.37;;;2.90;;
9422;SDS011;65863;49.506;10.400;2023-10-08T07:22:53;5.50;;;3.23;;
9422;SDS011;65863;49.506;10.400;2023-10-08T07:25:40;6.50;;;3.40;;
9422;SDS011;65863;49.506;10.400;2023-10-08T07:28:25;5.87;;;3.70;;
9422;SDS011;65863;49.506;10.400;2023-10-08T07:31:13;4.90;;;3.47;;
9422;SDS011;65863;49.506;10.400;2023-10-08T07:34:01;4.07;;;2.97;;
9422;SDS011;65863;49.506;10.400;2023-10-08T07:37:12;4.40;;;2.63;;
9422;SDS011;65863;49.506;10.400;2023-10-08T07:39:57;8.10;;;3.57;;
9422;SDS011;65863;49.506;10.400;2023-10-08T07:42:42;5.07;;;3.00;;
9422;SDS011;65863;49.506;10.400;2023-10-08T07:45:27;4.80;;;2.67;;
9422;SDS011;65863;49.506;10.400;2023-10-08T07:48:12;5.80;;;2.77;;
9422;SDS011;65863;49.506;10.400;2023-10-08T07:50:57;4.77;;;3.10;;
9422;SDS011;65863;49.506;10.400;2023-10-08T07:53:41;7.30;;;4.37;;
9422;SDS011;65863;49.506;10.400;2023-10-08T07:56:25;6.47;;;4.20;;
9422;SDS011;65863;49.506;10.400;2023-10-08T07:59:09;5.70;;;3.43;;
9422;SDS011;65863;49.506;10.400;2023-10-08T08:01:55;5.30;;;2.70;;
9422;SDS011;65863;49.506;10.400;2023-10-08T08:04:39;4.63;;;2.97;;
9422;SDS011;65863;49.506;10.400;2023-10-08T08:07:34;4.07;;;2.80;;
9422;SDS011;65863;49.506;10.400;2023-10-08T08:10:18;5.77;;;2.90;;
9422;SDS011;65863;49.506;10.400;2023-10-08T08:13:03;4.77;;;3.10;;
9422;SDS011;65863;49.506;10.400;2023-10-08T08:15:49;6.27;;;3.70;;
9422;SDS011;65863;49.506;10.400;2023-10-08T08:18:37;6.47;;;3.03;;
9422;SDS011;65863;49.506;10.400;2023-10-08T08:21:22;4.67;;;3.07;;
9422;SDS011;65863;49.506;10.400;2023-10-08T08:24:06;11.50;;;3.87;;
9422;SDS011;65863;49.506;10.400;2023-10-08T08:26:51;7.60;;;3.93;;
9422;SDS011;65863;49.506;10.400;2023-10-08T08:29:45;4.93;;;3.00;;
9422;SDS011;65863;49.506;10.400;2023-10-08T08:32:29;6.63;;;3.50;;
9422;SDS011;65863;49.506;10.400;2023-10-08T08:35:13;5.73;;;3.33;;
9422;SDS011;65863;49.506;10.400;2023-10-08T08:37:59;7.80;;;4.47;;
9422;SDS011;65863;49.506;10.400;2023-10-08T08:40:43;6.53;;;3.27;;
9422;SDS011;65863;49.506;10.400;2023-10-08T08:43:27;12.03;;;2.90;;
9422;SDS011;65863;49.506;10.400;2023-10-08T08:46:17;5.10;;;3.10;;
9422;SDS011;65863;49.506;10.400;2023-10-08T08:49:02;7.90;;;3.23;;
9422;SDS011;65863;49.506;10.400;2023-10-08T08:51:48;4.73;;;3.23;;
9422;SDS011;65863;49.506;10.400;2023-10-08T08:54:36;7.20;;;3.77;;
9422;SDS011;65863;49.506;10.400;2023-10-08T08:57:21;13.77;;;7.77;;
9422;SDS011;65863;49.506;10.400;2023-10-08T09:00:06;22.50;;;11.60;;
9422;SDS011;65863;49.506;10.400;2023-10-08T09:02:54;11.13;;;6.70;;
9422;SDS011;65863;49.506;10.400;2023-10-08T09:05:39;12.50;;;7.00;;
9422;SDS011;65863;49.506;10.400;2023-10-08T09:08:42;6.27;;;3.40;;
9422;SDS011;65863;49.506;10.400;2023-10-08T09:11:29;4.20;;;3.00;;
9422;SDS011;65863;49.506;10.400;2023-10-08T09:14:13;5.87;;;3.23;;
9422;SDS011;65863;49.506;10.400;2023-10-08T09:16:59;6.70;;;3.43;;
9422;SDS011;65863;49.506;10.400;2023-10-08T09:19:45;4.93;;;2.97;;
9422;SDS011;65863;49.506;10.400;2023-10-08T09:22:29;5.57;;;3.73;;
9422;SDS011;65863;49.506;10.400;2023-10-08T09:25:22;6.17;;;3.13;;
9422;SDS011;65863;49.506;10.400;2023-10-08T09:28:08;4.40;;;2.73;;
9422;SDS011;65863;49.506;10.400;2023-10-08T09:30:52;4.63;;;2.97;;
9422;SDS011;65863;49.506;10.400;2023-10-08T09:33:38;5.07;;;3.13;;
9422;SDS011;65863;49.506;10.400;2023-10-08T09:36:23;6.50;;;3.43;;
9422;SDS011;65863;49.506;10.400;2023-10-08T09:39:15;8.57;;;3.40;;
9422;SDS011;65863;49.506;10.400;2023-10-08T09:42:07;6.13;;;3.33;;
9422;SDS011;65863;49.506;10.400;2023-10-08T09:44:55;4.93;;;3.20;;
9422;SDS011;65863;49.506;10.400;2023-10-08T09:47:42;6.17;;;3.30;;
9422;SDS011;65863;49.506;10.400;2023-10-08T09:50:36;5.80;;;3.27;;
9422;SDS011;65863;49.506;10.400;2023-10-08T09:54:10;5.73;;;3.30;;
9422;SDS011;65863;49.506;10.400;2023-10-08T09:56:48;7.23;;;3.27;;
9422;SDS011;65863;49.506;10.400;2023-10-08T09:59:33;4.37;;;2.70;;
9422;SDS011;65863;49.506;10.400;2023-10-08T10:02:19;7.13;;;3.90;;
9422;SDS011;65863;49.506;10.400;2023-10-08T10:05:06;4.37;;;3.10;;
9422;SDS011;65863;49.506;10.400;2023-10-08T10:07:55;9.57;;;3.40;;
9422;SDS011;65863;49.506;10.400;2023-10-08T10:10:40;5.63;;;3.97;;
9422;SDS011;65863;49.506;10.400;2023-10-08T10:13:34;6.47;;;3.43;;
9422;SDS011;65863;49.506;10.400;2023-10-08T10:16:23;7.00;;;3.53;;
9422;SDS011;65863;49.506;10.400;2023-10-08T10:19:07;5.00;;;3.40;;
9422;SDS011;65863;49.506;10.400;2023-10-08T10:22:01;7.27;;;3.07;;
9422;SDS011;65863;49.506;10.400;2023-10-08T10:24:49;7.50;;;3.27;;
9422;SDS011;65863;49.506;10.400;2023-10-08T10:27:33;11.20;;;3.40;;
9422;SDS011;65863;49.506;10.400;2023-10-08T10:30:18;6.40;;;3.43;;
9422;SDS011;65863;49.506;10.400;2023-10-08T10:33:02;11.23;;;3.70;;
9422;SDS011;65863;49.506;10.400;2023-10-08T10:35:52;8.40;;;3.40;;
9422;SDS011;65863;49.506;10.400;2023-10-08T10:38:36;5.97;;;3.43;;
9422;SDS011;65863;49.506;10.400;2023-10-08T10:41:21;5.87;;;3.17;;
9422;SDS011;65863;49.506;10.400;2023-10-08T10:44:05;5.00;;;3.53;;
9422;SDS011;65863;49.506;10.400;2023-10-08T10:46:52;5.27;;;3.40;;
9422;SDS011;65863;49.506;10.400;2023-10-08T10:49:56;8.27;;;3.70;;
9422;SDS011;65863;49.506;10.400;2023-10-08T10:52:49;8.47;;;3.70;;
9422;SDS011;65863;49.506;10.400;2023-10-08T10:55:36;6.93;;;3.40;;
9422;SDS011;65863;49.506;10.400;2023-10-08T10:58:21;6.57;;;3.10;;
9422;SDS011;65863;49.506;10.400;2023-10-08T11:01:08;9.57;;;3.83;;
9422;SDS011;65863;49.506;10.400;2023-10-08T11:03:59;5.87;;;3.60;;
9422;SDS011;65863;49.506;10.400;2023-10-08T11:06:43;5.37;;;3.20;;
9422;SDS011;65863;49.506;10.400;2023-10-08T11:09:29;5.47;;;3.20;;
9422;SDS011;65863;49.506;10.400;2023-10-08T11:12:19;8.60;;;3.60;;
9422;SDS011;65863;49.506;10.400;2023-10-08T11:15:06;7.40;;;3.57;;
9422;SDS011;65863;49.506;10.400;2023-10-08T11:17:58;8.40;;;3.43;;
9422;SDS011;65863;49.506;10.400;2023-10-08T11:20:43;5.50;;;3.13;;
9422;SDS011;65863;49.506;10.400;2023-10-08T11:23:35;5.30;;;3.20;;
9422;SDS011;65863;49.506;10.400;2023-10-08T11:26:25;5.90;;;3.30;;
9422;SDS011;65863;49.506;10.400;2023-10-08T11:29:16;6.73;;;3.90;;
9422;SDS011;65863;49.506;10.400;2023-10-08T11:32:09;5.17;;;3.17;;
9422;SDS011;65863;49.506;10.400;2023-10-08T11:34:56;8.53;;;3.83;;
9422;SDS011;65863;49.506;10.400;2023-10-08T11:37:47;5.90;;;3.40;;
9422;SDS011;65863;49.506;10.400;2023-10-08T11:40:37;8.97;;;3.43;;
9422;SDS011;65863;49.506;10.400;2023-10-08T11:43:32;5.87;;;3.37;;
9422;SDS011;65863;49.506;10.400;2023-10-08T11:46:29;5.77;;;2.77;;
9422;SDS011;65863;49.506;10.400;2023-10-08T11:49:23;5.93;;;3.40;;
9422;SDS011;65863;49.506;10.400;2023-10-08T11:52:09;5.00;;;3.40;;
9422;SDS011;65863;49.506;10.400;2023-10-08T11:54:55;5.67;;;2.93;;
9422;SDS011;65863;49.506;10.400;2023-10-08T11:57:38;5.60;;;3.40;;
9422;SDS011;65863;49.506;10.400;2023-10-08T12:00:28;5.33;;;3.20;;
9422;SDS011;65863;49.506;10.400;2023-10-08T12:03:13;4.03;;;2.90;;
9422;SDS011;65863;49.506;10.400;2023-10-08T12:06:01;4.17;;;2.90;;
9422;SDS011;65863;49.506;10.400;2023-10-08T12:08:48;5.87;;;3.20;;
9422;SDS011;65863;49.506;10.400;2023-10-08T12:11:37;9.13;;;3.33;;
9422;SDS011;65863;49.506;10.400;2023-10-08T12:14:21;5.67;;;3.10;;
9422;SDS011;65863;49.506;10.400;2023-10-08T12:17:10;7.30;;;2.83;;
9422;SDS011;65863;49.506;10.400;2023-10-08T12:19:57;5.07;;;3.00;;
9422;SDS011;65863;49.506;10.400;2023-10-08T12:22:56;4.33;;;2.80;;
9422;SDS011;65863;49.506;10.400;2023-10-08T12:25:39;7.90;;;3.40;;
9422;SDS011;65863;49.506;10.400;2023-10-08T12:28:29;8.50;;;3.40;;
9422;SDS011;65863;49.506;10.400;2023-10-08T12:31:13;8.67;;;4.30;;
9422;SDS011;65863;49.506;10.400;2023-10-08T12:34:11;6.87;;;3.40;;
9422;SDS011;65863;49.506;10.400;2023-10-08T12:36:55;6.97;;;3.53;;
9422;SDS011;65863;49.506;10.400;2023-10-08T12:39:39;7.70;;;3.50;;
9422;SDS011;65863;49.506;10.400;2023-10-08T12:42:42;7.43;;;3.90;;
9422;SDS011;65863;49.506;10.400;2023-10-08T12:45:27;5.57;;;3.33;;
9422;SDS011;65863;49.506;10.400;2023-10-08T12:48:11;8.60;;;4.17;;
9422;SDS011;65863;49.506;10.400;2023-10-08T12:50:57;6.07;;;3.10;;
9422;SDS011;65863;49.506;10.400;2023-10-08T12:53:41;9.37;;;3.80;;
9422;SDS011;65863;49.506;10.400;2023-10-08T12:56:34;5.90;;;3.67;;
9422;SDS011;65863;49.506;10.400;2023-10-08T12:59:33;8.60;;;3.53;;
9422;SDS011;65863;49.506;10.400;2023-10-08T13:02:17;10.73;;;4.03;;
9422;SDS011;65863;49.506;10.400;2023-10-08T13:05:02;8.17;;;3.20;;
9422;SDS011;65863;49.506;10.400;2023-10-08T13:07:50;8.00;;;3.37;;
9422;SDS011;65863;49.506;10.400;2023-10-08T13:10:35;12.73;;;4.07;;
9422;SDS011;65863;49.506;10.400;2023-10-08T13:13:22;6.77;;;3.40;;
9422;SDS011;65863;49.506;10.400;2023-10-08T13:16:09;11.40;;;3.53;;
9422;SDS011;65863;49.506;10.400;2023-10-08T13:18:53;9.27;;;3.87;;
9422;SDS011;65863;49.506;10.400;2023-10-08T13:21:40;9.57;;;3.57;;
9422;SDS011;65863;49.506;10.400;2023-10-08T13:24:24;7.90;;;4.53;;
9422;SDS011;65863;49.506;10.400;2023-10-08T13:27:11;6.83;;;3.50;;
9422;SDS011;65863;49.506;10.400;2023-10-08T13:29:57;6.20;;;3.90;;
9422;SDS011;65863;49.506;10.400;2023-10-08T13:32:42;8.20;;;3.77;;
9422;SDS011;65863;49.506;10.400;2023-10-08T13:35:26;8.77;;;4.50;;
9422;SDS011;65863;49.506;10.400;2023-10-08T13:38:10;7.50;;;3.73;;
9422;SDS011;65863;49.506;10.400;2023-10-08T13:40:57;10.57;;;3.80;;
9422;SDS011;65863;49.506;10.400;2023-10-08T13:43:50;8.30;;;4.00;;
9422;SDS011;65863;49.506;10.400;2023-10-08T13:46:49;7.30;;;3.93;;
9422;SDS011;65863;49.506;10.400;2023-10-08T13:49:33;6.53;;;3.53;;
9422;SDS011;65863;49.506;10.400;2023-10-08T13:52:18;8.37;;;3.90;;
9422;SDS011;65863;49.506;10.400;2023-10-08T13:55:07;7.90;;;3.50;;
9422;SDS011;65863;49.506;10.400;2023-10-08T13:57:57;6.27;;;4.00;;
9422;SDS011;65863;49.506;10.400;2023-10-08T14:00:41;6.13;;;3.50;;
9422;SDS011;65863;49.506;10.400;2023-10-08T14:03:26;7.00;;;3.50;;
9422;SDS011;65863;49.506;10.400;2023-10-08T14:06:12;11.93;;;4.53;;
9422;SDS011;65863;49.506;10.400;2023-10-08T14:08:57;11.17;;;3.70;;
9422;SDS011;65863;49.506;10.400;2023-10-08T14:11:42;11.93;;;8.00;;
9422;SDS011;65863;49.506;10.400;2023-10-08T14:14:27;8.63;;;3.67;;
9422;SDS011;65863;49.506;10.400;2023-10-08T14:17:13;7.20;;;3.30;;
9422;SDS011;65863;49.506;10.400;2023-10-08T14:20:20;7.87;;;3.53;;
9422;SDS011;65863;49.506;10.400;2023-10-08T14:23:07;11.43;;;3.90;;
9422;SDS011;65863;49.506;10.400;2023-10-08T14:25:54;9.03;;;3.97;;
9422;SDS011;65863;49.506;10.400;2023-10-08T14:28:47;8.30;;;3.70;;
9422;SDS011;65863;49.506;10.400;2023-10-08T14:31:38;6.63;;;3.87;;
9422;SDS011;65863;49.506;10.400;2023-10-08T14:34:22;8.23;;;3.97;;
9422;SDS011;65863;49.506;10.400;2023-10-08T14:37:25;8.33;;;3.83;;
9422;SDS011;65863;49.506;10.400;2023-10-08T14:40:28;6.33;;;3.47;;
9422;SDS011;65863;49.506;10.400;2023-10-08T14:43:31;13.07;;;3.77;;
9422;SDS011;65863;49.506;10.400;2023-10-08T14:46:18;8.23;;;4.50;;
9422;SDS011;65863;49.506;10.400;2023-10-08T14:49:03;6.57;;;3.83;;
9422;SDS011;65863;49.506;10.400;2023-10-08T14:51:53;6.80;;;3.63;;
9422;SDS011;65863;49.506;10.400;2023-10-08T14:54:38;12.07;;;3.90;;
9422;SDS011;65863;49.506;10.400;2023-10-08T14:57:23;8.20;;;4.83;;
9422;SDS011;65863;49.506;10.400;2023-10-08T15:00:14;12.70;;;4.00;;
9422;SDS011;65863;49.506;10.400;2023-10-08T15:02:58;8.30;;;3.63;;
9422;SDS011;65863;49.506;10.400;2023-10-08T15:05:46;7.37;;;3.70;;
9422;SDS011;65863;49.506;10.400;2023-10-08T15:08:31;7.67;;;4.13;;
9422;SDS011;65863;49.506;10.400;2023-10-08T15:11:16;7.93;;;4.17;;
9422;SDS011;65863;49.506;10.400;2023-10-08T15:14:00;10.27;;;4.07;;
9422;SDS011;65863;49.506;10.400;2023-10-08T15:16:45;6.70;;;3.93;;
9422;SDS011;65863;49.506;10.400;2023-10-08T15:19:36;6.23;;;3.70;;
9422;SDS011;65863;49.506;10.400;2023-10-08T15:22:21;14.70;;;4.80;;
9422;SDS011;65863;49.506;10.400;2023-10-08T15:25:05;11.13;;;4.33;;
9422;SDS011;65863;49.506;10.400;2023-10-08T15:27:50;8.63;;;4.53;;
9422;SDS011;65863;49.506;10.400;2023-10-08T15:30:34;10.60;;;6.17;;
9422;SDS011;65863;49.506;10.400;2023-10-08T15:33:19;10.83;;;3.73;;
9422;SDS011;65863;49.506;10.400;2023-10-08T15:36:03;5.40;;;3.60;;
9422;SDS011;65863;49.506;10.400;2023-10-08T15:38:48;14.80;;;5.00;;
9422;SDS011;65863;49.506;10.400;2023-10-08T15:41:32;10.27;;;5.90;;
9422;SDS011;65863;49.506;10.400;2023-10-08T15:44:19;13.07;;;5.63;;
9422;SDS011;65863;49.506;10.400;2023-10-08T15:47:06;12.60;;;4.60;;
9422;SDS011;65863;49.506;10.400;2023-10-08T15:49:52;8.60;;;4.80;;
9422;SDS011;65863;49.506;10.400;2023-10-08T15:52:36;11.50;;;6.35;;
9422;SDS011;65863;49.506;10.400;2023-10-08T15:55:21;10.47;;;6.27;;
9422;SDS011;65863;49.506;10.400;2023-10-08T15:58:05;8.67;;;5.43;;
9422;SDS011;65863;49.506;10.400;2023-10-08T16:00:50;9.33;;;5.50;;
9422;SDS011;65863;49.506;10.400;2023-10-08T16:03:34;13.07;;;4.83;;
9422;SDS011;65863;49.506;10.400;2023-10-08T16:06:18;6.57;;;3.60;;
9422;SDS011;65863;49.506;10.400;2023-10-08T16:09:03;8.70;;;3.53;;
9422;SDS011;65863;49.506;10.400;2023-10-08T16:11:49;10.07;;;3.77;;
9422;SDS011;65863;49.506;10.400;2023-10-08T16:14:32;8.57;;;3.87;;
9422;SDS011;65863;49.506;10.400;2023-10-08T16:17:17;8.83;;;3.30;;
9422;SDS011;65863;49.506;10.400;2023-10-08T16:20:02;10.93;;;4.03;;
9422;SDS011;65863;49.506;10.400;2023-10-08T16:22:57;6.33;;;3.87;;
9422;SDS011;65863;49.506;10.400;2023-10-08T16:25:41;8.27;;;4.07;;
9422;SDS011;65863;49.506;10.400;2023-10-08T16:28:26;9.50;;;4.13;;
9422;SDS011;65863;49.506;10.400;2023-10-08T16:31:10;8.13;;;4.17;;
9422;SDS011;65863;49.506;10.400;2023-10-08T16:33:54;10.63;;;3.60;;
9422;SDS011;65863;49.506;10.400;2023-10-08T16:36:38;8.90;;;4.70;;
9422;SDS011;65863;49.506;10.400;2023-10-08T16:39:24;7.90;;;4.23;;
9422;SDS011;65863;49.506;10.400;2023-10-08T16:42:08;8.33;;;4.53;;
9422;SDS011;65863;49.506;10.400;2023-10-08T16:44:52;8.40;;;3.60;;
9422;SDS011;65863;49.506;10.400;2023-10-08T16:47:36;11.80;;;3.53;;
9422;SDS011;65863;49.506;10.400;2023-10-08T16:50:20;4.90;;;3.17;;
9422;SDS011;65863;49.506;10.400;2023-10-08T16:53:04;4.73;;;3.13;;